sensor_id;sensor_type;location;lat;lon;timestamp;P1;P4;P2;P0;N10;N4;N25;N1;N05;TS
71550;SPS30;59367;48.414;9.872;2023-04-03T00:00:55;6.765738487;;6.765738487;;;;;;;
71550;SPS30;59367;48.414;9.872;2023-04-03T00:02:02;7.036118984;;7.036118984;;;;;;;
71550;SPS30;59367;48.414;9.872;2023-04-03T00:03:09;6.883963108;;6.883963108;;;;;;;
71550;SPS30;59367;48.414;9.872;2023-04-03T00:04:16;7.867136478;;7.867136478;;;;;;;
71550;SPS30;59367;48.414;9.872;2023-04-03T00:05:23;6.923810959;;6.923810959;;;;;;;
71550;SPS30;59367;48.414;9.872;2023-04-03T00:06:30;7.264594555;;7.264594555;;;;;;;
71550;SPS30;59367;48.414;9.872;2023-04-03T00:07:37;6.72650528;;6.72650528;;;;;;;
71550;SPS30;59367;48.414;9.872;2023-04-03T00:08:44;6.777540207;;6.777540207;;;;;;;
71550;SPS30;59367;48.414;9.872;2023-04-03T00:09:51;7.053690434;;7.053690434;;;;;;;
71550;SPS30;59367;48.414;9.872;2023-04-03T00:10:58;7.554964066;;7.554964066;;;;;;;
71550;SPS30;59367;48.414;9.872;2023-04-03T00:12:06;7.416291237;;7.416291237;;;;;;;
71550;SPS30;59367;48.414;9.872;2023-04-03T00:13:13;7.215885639;;7.215885639;;;;;;;
71550;SPS30;59367;48.414;9.872;2023-04-03T00:14:20;6.831096649;;6.831096649;;;;;;;
71550;SPS30;59367;48.414;9.872;2023-04-03T00:15:27;7.143694878;;7.143694878;;;;;;;
71550;SPS30;59367;48.414;9.872;2023-04-03T00:16:34;7.437555313;;7.437555313;;;;;;;
71550;SPS30;59367;48.414;9.872;2023-04-03T00:17:41;6.99016428;;6.99016428;;;;;;;
71550;SPS30;59367;48.414;9.872;2023-04-03T00:18:48;6.472666264;;6.472666264;;;;;;;
71550;SPS30;59367;48.414;9.872;2023-04-03T00:19:55;7.089905262;;7.089905262;;;;;;;
71550;SPS30;59367;48.414;9.872;2023-04-03T00:21:02;6.493630886;;6.493630886;;;;;;;
71550;SPS30;59367;48.414;9.872;2023-04-03T00:22:10;7.126096725;;7.126096725;;;;;;;
71550;SPS30;59367;48.414;9.872;2023-04-03T00:23:17;6.223125458;;6.223125458;;;;;;;
71550;SPS30;59367;48.414;9.872;2023-04-03T00:24:24;7.674876213;;7.674876213;;;;;;;
71550;SPS30;59367;48.414;9.872;2023-04-03T00:25:31;6.639848232;;6.639848232;;;;;;;
71550;SPS30;59367;48.414;9.872;2023-04-03T00:26:38;6.856070995;;6.856070995;;;;;;;
71550;SPS30;59367;48.414;9.872;2023-04-03T00:27:45;6.784516335;;6.784516335;;;;;;;
71550;SPS30;59367;48.414;9.872;2023-04-03T00:28:52;6.229187012;;6.229187012;;;;;;;
71550;SPS30;59367;48.414;9.872;2023-04-03T00:29:59;6.778775215;;6.778775215;;;;;;;
71550;SPS30;59367;48.414;9.872;2023-04-03T00:31:06;6.535907269;;6.535907269;;;;;;;
71550;SPS30;59367;48.414;9.872;2023-04-03T00:32:13;6.796102524;;6.796102524;;;;;;;
71550;SPS30;59367;48.414;9.872;2023-04-03T00:33:20;7.545291901;;7.545291901;;;;;;;
71550;SPS30;59367;48.414;9.872;2023-04-03T00:34:27;6.527577877;;6.527577877;;;;;;;
71550;SPS30;59367;48.414;9.872;2023-04-03T00:35:34;6.483809471;;6.483809471;;;;;;;
71550;SPS30;59367;48.414;9.872;2023-04-03T00:36:42;6.496007442;;6.496007442;;;;;;;
71550;SPS30;59367;48.414;9.872;2023-04-03T00:37:50;6.711326599;;6.711326599;;;;;;;
71550;SPS30;59367;48.414;9.872;2023-04-03T00:38:58;6.584588051;;6.584588051;;;;;;;
71550;SPS30;59367;48.414;9.872;2023-04-03T00:40:06;7.769111156;;7.769111156;;;;;;;
71550;SPS30;59367;48.414;9.872;2023-04-03T00:41:15;7.090186119;;7.090186119;;;;;;;
71550;SPS30;59367;48.414;9.872;2023-04-03T00:42:22;7.328642368;;7.328642368;;;;;;;
71550;SPS30;59367;48.414;9.872;2023-04-03T00:43:29;7.640576839;;7.640576839;;;;;;;
71550;SPS30;59367;48.414;9.872;2023-04-03T00:45:55;7.265117168;;7.265117168;;;;;;;
71550;SPS30;59367;48.414;9.872;2023-04-03T00:47:03;6.78624773;;6.78624773;;;;;;;
71550;SPS30;59367;48.414;9.872;2023-04-03T00:48:15;6.635057926;;6.635057926;;;;;;;
71550;SPS30;59367;48.414;9.872;2023-04-03T00:49:24;7.161501884;;7.161501884;;;;;;;
71550;SPS30;59367;48.414;9.872;2023-04-03T00:50:33;7.702238083;;7.702238083;;;;;;;
71550;SPS30;59367;48.414;9.872;2023-04-03T00:51:41;7.33759737;;7.33759737;;;;;;;
71550;SPS30;59367;48.414;9.872;2023-04-03T00:52:49;7.244565487;;7.244565487;;;;;;;
71550;SPS30;59367;48.414;9.872;2023-04-03T00:53:57;6.827058792;;6.827058792;;;;;;;
71550;SPS30;59367;48.414;9.872;2023-04-03T00:55:08;6.954337597;;6.954337597;;;;;;;
71550;SPS30;59367;48.414;9.872;2023-04-03T00:56:17;8.363915443;;8.363915443;;;;;;;
71550;SPS30;59367;48.414;9.872;2023-04-03T00:57:28;8.055092812;;8.055092812;;;;;;;
71550;SPS30;59367;48.414;9.872;2023-04-03T00:58:37;7.503833294;;7.503833294;;;;;;;
71550;SPS30;59367;48.414;9.872;2023-04-03T00:59:48;8.044578552;;8.044578552;;;;;;;
71550;SPS30;59367;48.414;9.872;2023-04-03T01:00:58;8.924167633;;8.924167633;;;;;;;
71550;SPS30;59367;48.414;9.872;2023-04-03T01:02:10;7.62201643;;7.62201643;;;;;;;
71550;SPS30;59367;48.414;9.872;2023-04-03T01:03:17;8.061361313;;8.061361313;;;;;;;
71550;SPS30;59367;48.414;9.872;2023-04-03T01:04:29;8.920768738;;8.920768738;;;;;;;
71550;SPS30;59367;48.414;9.872;2023-04-03T01:05:38;8.124911308;;8.124911308;;;;;;;
71550;SPS30;59367;48.414;9.872;2023-04-03T01:06:47;7.052852154;;7.052852154;;;;;;;
71550;SPS30;59367;48.414;9.872;2023-04-03T01:07:54;6.956643105;;6.956643105;;;;;;;
71550;SPS30;59367;48.414;9.872;2023-04-03T01:09:03;7.253882408;;7.240291595;;;;;;;
71550;SPS30;59367;48.414;9.872;2023-04-03T01:10:12;7.293624878;;7.293624878;;;;;;;
71550;SPS30;59367;48.414;9.872;2023-04-03T01:11:20;6.595074654;;6.595074654;;;;;;;
71550;SPS30;59367;48.414;9.872;2023-04-03T01:12:28;7.701202393;;7.701202393;;;;;;;
71550;SPS30;59367;48.414;9.872;2023-04-03T01:13:37;6.577492237;;6.577492237;;;;;;;
71550;SPS30;59367;48.414;9.872;2023-04-03T01:14:44;6.465675354;;6.465675354;;;;;;;
71550;SPS30;59367;48.414;9.872;2023-04-03T01:15:52;6.194634914;;6.194634914;;;;;;;
71550;SPS30;59367;48.414;9.872;2023-04-03T01:17:00;6.331430912;;6.331430912;;;;;;;
71550;SPS30;59367;48.414;9.872;2023-04-03T01:18:09;6.854184151;;6.854184151;;;;;;;
71550;SPS30;59367;48.414;9.872;2023-04-03T01:19:16;6.512703896;;6.512703896;;;;;;;
71550;SPS30;59367;48.414;9.872;2023-04-03T01:20:35;7.018828392;;7.018828392;;;;;;;
71550;SPS30;59367;48.414;9.872;2023-04-03T01:22:05;6.307491302;;6.307491302;;;;;;;
71550;SPS30;59367;48.414;9.872;2023-04-03T01:23:27;7.508308411;;7.508308411;;;;;;;
71550;SPS30;59367;48.414;9.872;2023-04-03T01:25:11;7.006369114;;7.006369114;;;;;;;
71550;SPS30;59367;48.414;9.872;2023-04-03T01:26:19;6.623491764;;6.623491764;;;;;;;
71550;SPS30;59367;48.414;9.872;2023-04-03T01:27:26;6.515025616;;6.515025616;;;;;;;
71550;SPS30;59367;48.414;9.872;2023-04-03T01:28:35;6.866538048;;6.866538048;;;;;;;
71550;SPS30;59367;48.414;9.872;2023-04-03T01:29:42;7.344112396;;7.344112396;;;;;;;
71550;SPS30;59367;48.414;9.872;2023-04-03T01:30:53;7.311344624;;7.311344624;;;;;;;
71550;SPS30;59367;48.414;9.872;2023-04-03T01:32:06;7.609143734;;7.609143734;;;;;;;
71550;SPS30;59367;48.414;9.872;2023-04-03T01:33:13;5.841021061;;5.841021061;;;;;;;
71550;SPS30;59367;48.414;9.872;2023-04-03T01:34:20;6.171933174;;6.171933174;;;;;;;
71550;SPS30;59367;48.414;9.872;2023-04-03T01:35:27;6.385938168;;6.385938168;;;;;;;
71550;SPS30;59367;48.414;9.872;2023-04-03T01:36:34;6.640160561;;6.640160561;;;;;;;
71550;SPS30;59367;48.414;9.872;2023-04-03T01:37:41;7.045646191;;7.045646191;;;;;;;
71550;SPS30;59367;48.414;9.872;2023-04-03T01:38:48;6.37414217;;6.37414217;;;;;;;
71550;SPS30;59367;48.414;9.872;2023-04-03T01:39:56;6.633796692;;6.633796692;;;;;;;
71550;SPS30;59367;48.414;9.872;2023-04-03T01:41:03;6.590843678;;6.590843678;;;;;;;
71550;SPS30;59367;48.414;9.872;2023-04-03T01:42:10;6.540782928;;6.540782928;;;;;;;
71550;SPS30;59367;48.414;9.872;2023-04-03T01:43:17;6.037216187;;6.037216187;;;;;;;
71550;SPS30;59367;48.414;9.872;2023-04-03T01:44:24;5.75993681;;5.75993681;;;;;;;
71550;SPS30;59367;48.414;9.872;2023-04-03T01:45:30;5.999577999;;5.999577999;;;;;;;
71550;SPS30;59367;48.414;9.872;2023-04-03T01:46:37;6.126302719;;6.126302719;;;;;;;
71550;SPS30;59367;48.414;9.872;2023-04-03T01:47:44;5.797722816;;5.797722816;;;;;;;
71550;SPS30;59367;48.414;9.872;2023-04-03T01:48:51;6.591538429;;6.591538429;;;;;;;
71550;SPS30;59367;48.414;9.872;2023-04-03T01:49:58;6.473121166;;6.473121166;;;;;;;
71550;SPS30;59367;48.414;9.872;2023-04-03T01:51:05;5.816275597;;5.816275597;;;;;;;
71550;SPS30;59367;48.414;9.872;2023-04-03T01:52:12;6.009769917;;6.009769917;;;;;;;
71550;SPS30;59367;48.414;9.872;2023-04-03T01:53:21;6.060521126;;6.060521126;;;;;;;
71550;SPS30;59367;48.414;9.872;2023-04-03T01:54:28;5.962170124;;5.962170124;;;;;;;
71550;SPS30;59367;48.414;9.872;2023-04-03T01:55:35;5.826471806;;5.826471806;;;;;;;
71550;SPS30;59367;48.414;9.872;2023-04-03T01:56:42;6.048383236;;6.048383236;;;;;;;
71550;SPS30;59367;48.414;9.872;2023-04-03T01:57:49;5.737151146;;5.737151146;;;;;;;
71550;SPS30;59367;48.414;9.872;2023-04-03T01:58:55;5.998060703;;5.998060703;;;;;;;
71550;SPS30;59367;48.414;9.872;2023-04-03T02:00:03;5.721821785;;5.721821785;;;;;;;
71550;SPS30;59367;48.414;9.872;2023-04-03T02:01:10;5.617556572;;5.617556572;;;;;;;
71550;SPS30;59367;48.414;9.872;2023-04-03T02:02:17;5.801382065;;5.801382065;;;;;;;
71550;SPS30;59367;48.414;9.872;2023-04-03T02:03:24;4.944777489;;4.944777489;;;;;;;
71550;SPS30;59367;48.414;9.872;2023-04-03T02:04:31;5.428672314;;5.428672314;;;;;;;
71550;SPS30;59367;48.414;9.872;2023-04-03T02:05:38;5.308544159;;5.308544159;;;;;;;
71550;SPS30;59367;48.414;9.872;2023-04-03T02:06:45;5.400620461;;5.400620461;;;;;;;
71550;SPS30;59367;48.414;9.872;2023-04-03T02:07:52;5.910346508;;5.910346508;;;;;;;
71550;SPS30;59367;48.414;9.872;2023-04-03T02:08:59;5.513528824;;5.513528824;;;;;;;
71550;SPS30;59367;48.414;9.872;2023-04-03T02:10:07;5.109691143;;5.109691143;;;;;;;
71550;SPS30;59367;48.414;9.872;2023-04-03T02:11:14;4.7922616;;4.7922616;;;;;;;
71550;SPS30;59367;48.414;9.872;2023-04-03T02:12:21;6.011109352;;6.011109352;;;;;;;
71550;SPS30;59367;48.414;9.872;2023-04-03T02:13:28;5.432672024;;5.432672024;;;;;;;
71550;SPS30;59367;48.414;9.872;2023-04-03T02:14:35;5.099658012;;5.099658012;;;;;;;
71550;SPS30;59367;48.414;9.872;2023-04-03T02:15:42;5.515218735;;5.515218735;;;;;;;
71550;SPS30;59367;48.414;9.872;2023-04-03T02:16:49;5.368393421;;5.368393421;;;;;;;
71550;SPS30;59367;48.414;9.872;2023-04-03T02:17:56;5.331751347;;5.331751347;;;;;;;
71550;SPS30;59367;48.414;9.872;2023-04-03T02:19:03;5.946150303;;5.946150303;;;;;;;
71550;SPS30;59367;48.414;9.872;2023-04-03T02:20:11;5.736667633;;5.736667633;;;;;;;
71550;SPS30;59367;48.414;9.872;2023-04-03T02:21:18;5.325526714;;5.325526714;;;;;;;
71550;SPS30;59367;48.414;9.872;2023-04-03T02:22:24;4.831818104;;4.831818104;;;;;;;
71550;SPS30;59367;48.414;9.872;2023-04-03T02:23:32;5.975606918;;5.975606918;;;;;;;
71550;SPS30;59367;48.414;9.872;2023-04-03T02:24:39;5.797265053;;5.797265053;;;;;;;
71550;SPS30;59367;48.414;9.872;2023-04-03T02:25:46;5.975089073;;5.975089073;;;;;;;
71550;SPS30;59367;48.414;9.872;2023-04-03T02:26:53;5.387282848;;5.387282848;;;;;;;
71550;SPS30;59367;48.414;9.872;2023-04-03T02:28:00;5.944007397;;5.944007397;;;;;;;
71550;SPS30;59367;48.414;9.872;2023-04-03T02:29:07;5.502859592;;5.502859592;;;;;;;
71550;SPS30;59367;48.414;9.872;2023-04-03T02:30:14;5.670297146;;5.670297146;;;;;;;
71550;SPS30;59367;48.414;9.872;2023-04-03T02:31:22;6.24284029;;6.24284029;;;;;;;
71550;SPS30;59367;48.414;9.872;2023-04-03T02:32:29;5.774857044;;5.774857044;;;;;;;
71550;SPS30;59367;48.414;9.872;2023-04-03T02:33:36;5.526447773;;5.526447773;;;;;;;
71550;SPS30;59367;48.414;9.872;2023-04-03T02:34:43;5.581103325;;5.581103325;;;;;;;
71550;SPS30;59367;48.414;9.872;2023-04-03T02:35:50;5.753007889;;5.753007889;;;;;;;
71550;SPS30;59367;48.414;9.872;2023-04-03T02:36:59;5.764793873;;5.764793873;;;;;;;
71550;SPS30;59367;48.414;9.872;2023-04-03T02:38:06;5.652332306;;5.652332306;;;;;;;
71550;SPS30;59367;48.414;9.872;2023-04-03T02:39:13;5.76678133;;5.76678133;;;;;;;
71550;SPS30;59367;48.414;9.872;2023-04-03T02:40:20;5.48496294;;5.48496294;;;;;;;
71550;SPS30;59367;48.414;9.872;2023-04-03T02:41:27;5.691322327;;5.691322327;;;;;;;
71550;SPS30;59367;48.414;9.872;2023-04-03T02:42:34;6.174200058;;6.174200058;;;;;;;
71550;SPS30;59367;48.414;9.872;2023-04-03T02:43:41;5.483681202;;5.483681202;;;;;;;
71550;SPS30;59367;48.414;9.872;2023-04-03T02:44:48;6.184062004;;6.184062004;;;;;;;
71550;SPS30;59367;48.414;9.872;2023-04-03T02:45:55;5.860674381;;5.860674381;;;;;;;
71550;SPS30;59367;48.414;9.872;2023-04-03T02:47:02;6.2585392;;6.2585392;;;;;;;
71550;SPS30;59367;48.414;9.872;2023-04-03T02:48:09;6.268851757;;6.268851757;;;;;;;
71550;SPS30;59367;48.414;9.872;2023-04-03T02:49:16;6.067242146;;6.067242146;;;;;;;
71550;SPS30;59367;48.414;9.872;2023-04-03T02:50:23;6.111940861;;6.111940861;;;;;;;
71550;SPS30;59367;48.414;9.872;2023-04-03T02:51:30;6.306921482;;6.306921482;;;;;;;
71550;SPS30;59367;48.414;9.872;2023-04-03T02:52:37;5.755592346;;5.755592346;;;;;;;
71550;SPS30;59367;48.414;9.872;2023-04-03T02:53:44;5.290030003;;5.290030003;;;;;;;
71550;SPS30;59367;48.414;9.872;2023-04-03T02:54:51;6.17740345;;6.17740345;;;;;;;
71550;SPS30;59367;48.414;9.872;2023-04-03T02:55:58;5.61108017;;5.61108017;;;;;;;
71550;SPS30;59367;48.414;9.872;2023-04-03T02:57:05;6.038321495;;6.038321495;;;;;;;
71550;SPS30;59367;48.414;9.872;2023-04-03T02:58:13;5.924647808;;5.924647808;;;;;;;
71550;SPS30;59367;48.414;9.872;2023-04-03T02:59:20;6.460916042;;6.460916042;;;;;;;
71550;SPS30;59367;48.414;9.872;2023-04-03T03:00:27;6.454855919;;6.454855919;;;;;;;
71550;SPS30;59367;48.414;9.872;2023-04-03T03:01:34;6.558705807;;6.558705807;;;;;;;
71550;SPS30;59367;48.414;9.872;2023-04-03T03:02:41;6.87384367;;6.87384367;;;;;;;
71550;SPS30;59367;48.414;9.872;2023-04-03T03:03:48;5.845786572;;5.845786572;;;;;;;
71550;SPS30;59367;48.414;9.872;2023-04-03T03:04:55;6.345041752;;6.345041752;;;;;;;
71550;SPS30;59367;48.414;9.872;2023-04-03T03:06:06;6.449346066;;6.449346066;;;;;;;
71550;SPS30;59367;48.414;9.872;2023-04-03T03:07:14;6.302322388;;6.302322388;;;;;;;
71550;SPS30;59367;48.414;9.872;2023-04-03T03:08:21;6.157151699;;6.157151699;;;;;;;
71550;SPS30;59367;48.414;9.872;2023-04-03T03:09:28;6.607032299;;6.607032299;;;;;;;
71550;SPS30;59367;48.414;9.872;2023-04-03T03:10:35;5.554970264;;5.554970264;;;;;;;
71550;SPS30;59367;48.414;9.872;2023-04-03T03:11:42;6.317822933;;6.317822933;;;;;;;
71550;SPS30;59367;48.414;9.872;2023-04-03T03:12:49;5.667862892;;5.667862892;;;;;;;
71550;SPS30;59367;48.414;9.872;2023-04-03T03:13:56;6.130784512;;6.130784512;;;;;;;
71550;SPS30;59367;48.414;9.872;2023-04-03T03:15:04;4.990585327;;4.990585327;;;;;;;
71550;SPS30;59367;48.414;9.872;2023-04-03T03:16:11;5.92890358;;5.92890358;;;;;;;
71550;SPS30;59367;48.414;9.872;2023-04-03T03:17:18;6.322897911;;6.322897911;;;;;;;
71550;SPS30;59367;48.414;9.872;2023-04-03T03:18:25;6.006729126;;6.006729126;;;;;;;
71550;SPS30;59367;48.414;9.872;2023-04-03T03:20:36;7.013190746;;7.013190746;;;;;;;
71550;SPS30;59367;48.414;9.872;2023-04-03T03:21:43;7.173075676;;7.173075676;;;;;;;
71550;SPS30;59367;48.414;9.872;2023-04-03T03:22:50;6.182795525;;6.182795525;;;;;;;
71550;SPS30;59367;48.414;9.872;2023-04-03T03:23:57;6.113045692;;6.113045692;;;;;;;
71550;SPS30;59367;48.414;9.872;2023-04-03T03:25:04;5.742640972;;5.742640972;;;;;;;
71550;SPS30;59367;48.414;9.872;2023-04-03T03:26:12;5.009422302;;5.009422302;;;;;;;
71550;SPS30;59367;48.414;9.872;2023-04-03T03:27:19;5.526888847;;5.526888847;;;;;;;
71550;SPS30;59367;48.414;9.872;2023-04-03T03:28:26;5.341349602;;5.341349602;;;;;;;
71550;SPS30;59367;48.414;9.872;2023-04-03T03:29:33;5.581470966;;5.581470966;;;;;;;
71550;SPS30;59367;48.414;9.872;2023-04-03T03:30:40;5.517020702;;5.517020702;;;;;;;
71550;SPS30;59367;48.414;9.872;2023-04-03T03:31:47;5.849390507;;5.849390507;;;;;;;
71550;SPS30;59367;48.414;9.872;2023-04-03T03:32:54;5.391952038;;5.391952038;;;;;;;
71550;SPS30;59367;48.414;9.872;2023-04-03T03:34:01;5.385522366;;5.385522366;;;;;;;
71550;SPS30;59367;48.414;9.872;2023-04-03T03:35:09;5.224367142;;5.224367142;;;;;;;
71550;SPS30;59367;48.414;9.872;2023-04-03T03:36:16;4.860005379;;4.860005379;;;;;;;
71550;SPS30;59367;48.414;9.872;2023-04-03T03:37:23;4.808727264;;4.808727264;;;;;;;
71550;SPS30;59367;48.414;9.872;2023-04-03T03:38:30;5.038722515;;5.038722515;;;;;;;
71550;SPS30;59367;48.414;9.872;2023-04-03T03:39:37;4.080449104;;4.080449104;;;;;;;
71550;SPS30;59367;48.414;9.872;2023-04-03T03:40:44;4.514054775;;4.514054775;;;;;;;
71550;SPS30;59367;48.414;9.872;2023-04-03T03:41:51;4.555692673;;4.555692673;;;;;;;
71550;SPS30;59367;48.414;9.872;2023-04-03T03:42:58;3.74996233;;3.74996233;;;;;;;
71550;SPS30;59367;48.414;9.872;2023-04-03T03:44:05;5.273498535;;5.273498535;;;;;;;
71550;SPS30;59367;48.414;9.872;2023-04-03T03:45:13;5.33864069;;5.33864069;;;;;;;
71550;SPS30;59367;48.414;9.872;2023-04-03T03:46:20;6.601382732;;6.601382732;;;;;;;
71550;SPS30;59367;48.414;9.872;2023-04-03T03:47:27;5.594835281;;5.594835281;;;;;;;
71550;SPS30;59367;48.414;9.872;2023-04-03T03:48:34;5.92296505;;5.922946453;;;;;;;
71550;SPS30;59367;48.414;9.872;2023-04-03T03:49:41;5.69278574;;5.678987026;;;;;;;
71550;SPS30;59367;48.414;9.872;2023-04-03T03:50:48;6.127121449;;6.057805538;;;;;;;
71550;SPS30;59367;48.414;9.872;2023-04-03T03:51:55;5.444937229;;5.381448746;;;;;;;
71550;SPS30;59367;48.414;9.872;2023-04-03T03:53:02;4.564924717;;4.56489563;;;;;;;
71550;SPS30;59367;48.414;9.872;2023-04-03T03:54:10;4.979899883;;4.979899883;;;;;;;
71550;SPS30;59367;48.414;9.872;2023-04-03T03:55:17;4.723198891;;4.723198891;;;;;;;
71550;SPS30;59367;48.414;9.872;2023-04-03T03:56:25;4.148431778;;4.148431778;;;;;;;
71550;SPS30;59367;48.414;9.872;2023-04-03T03:57:32;3.695982695;;3.695982695;;;;;;;
71550;SPS30;59367;48.414;9.872;2023-04-03T03:58:39;4.211899757;;4.211899757;;;;;;;
71550;SPS30;59367;48.414;9.872;2023-04-03T03:59:46;3.96313405;;3.96313405;;;;;;;
71550;SPS30;59367;48.414;9.872;2023-04-03T04:00:53;4.444859028;;4.444859028;;;;;;;
71550;SPS30;59367;48.414;9.872;2023-04-03T04:02:00;4.33321619;;4.33321619;;;;;;;
71550;SPS30;59367;48.414;9.872;2023-04-03T04:03:07;3.997536182;;3.997536182;;;;;;;
71550;SPS30;59367;48.414;9.872;2023-04-03T04:04:14;3.752261877;;3.752261877;;;;;;;
71550;SPS30;59367;48.414;9.872;2023-04-03T04:05:21;3.628518105;;3.628518105;;;;;;;
71550;SPS30;59367;48.414;9.872;2023-04-03T04:06:28;4.011127949;;4.011127949;;;;;;;
71550;SPS30;59367;48.414;9.872;2023-04-03T04:07:35;3.578775167;;3.578775167;;;;;;;
71550;SPS30;59367;48.414;9.872;2023-04-03T04:08:42;4.181800842;;4.181800842;;;;;;;
71550;SPS30;59367;48.414;9.872;2023-04-03T04:09:49;4.195016384;;4.195016384;;;;;;;
71550;SPS30;59367;48.414;9.872;2023-04-03T04:10:57;3.827214956;;3.827214956;;;;;;;
71550;SPS30;59367;48.414;9.872;2023-04-03T04:12:04;3.684994698;;3.684994698;;;;;;;
71550;SPS30;59367;48.414;9.872;2023-04-03T04:13:11;3.695380926;;3.695380926;;;;;;;
71550;SPS30;59367;48.414;9.872;2023-04-03T04:14:18;3.855892658;;3.855892658;;;;;;;
71550;SPS30;59367;48.414;9.872;2023-04-03T04:15:25;3.580796003;;3.580796003;;;;;;;
71550;SPS30;59367;48.414;9.872;2023-04-03T04:16:32;2.814063072;;2.814063072;;;;;;;
71550;SPS30;59367;48.414;9.872;2023-04-03T04:17:39;3.544340134;;3.544340134;;;;;;;
71550;SPS30;59367;48.414;9.872;2023-04-03T04:18:46;3.814935446;;3.814935446;;;;;;;
71550;SPS30;59367;48.414;9.872;2023-04-03T04:19:53;3.855739594;;3.855739594;;;;;;;
71550;SPS30;59367;48.414;9.872;2023-04-03T04:21:00;3.687649012;;3.687649012;;;;;;;
71550;SPS30;59367;48.414;9.872;2023-04-03T04:22:07;3.652873039;;3.652873039;;;;;;;
71550;SPS30;59367;48.414;9.872;2023-04-03T04:23:15;3.068238497;;3.068238497;;;;;;;
71550;SPS30;59367;48.414;9.872;2023-04-03T04:24:22;3.828016281;;3.828016281;;;;;;;
71550;SPS30;59367;48.414;9.872;2023-04-03T04:25:29;3.587112904;;3.587112904;;;;;;;
71550;SPS30;59367;48.414;9.872;2023-04-03T04:26:36;3.56084156;;3.56084156;;;;;;;
71550;SPS30;59367;48.414;9.872;2023-04-03T04:27:43;3.283201694;;3.283201694;;;;;;;
71550;SPS30;59367;48.414;9.872;2023-04-03T04:28:50;3.406436682;;3.406436682;;;;;;;
71550;SPS30;59367;48.414;9.872;2023-04-03T04:29:57;3.79546237;;3.79546237;;;;;;;
71550;SPS30;59367;48.414;9.872;2023-04-03T04:31:04;3.789205074;;3.789205074;;;;;;;
71550;SPS30;59367;48.414;9.872;2023-04-03T04:32:11;3.293874025;;3.293874025;;;;;;;
71550;SPS30;59367;48.414;9.872;2023-04-03T04:33:18;3.105854273;;3.105854273;;;;;;;
71550;SPS30;59367;48.414;9.872;2023-04-03T04:34:25;3.733978033;;3.733978033;;;;;;;
71550;SPS30;59367;48.414;9.872;2023-04-03T04:35:32;4.09765625;;4.09765625;;;;;;;
71550;SPS30;59367;48.414;9.872;2023-04-03T04:36:40;3.796339989;;3.796339989;;;;;;;
71550;SPS30;59367;48.414;9.872;2023-04-03T04:37:47;4.051346779;;4.051346779;;;;;;;
71550;SPS30;59367;48.414;9.872;2023-04-03T04:38:54;3.52463913;;3.52463913;;;;;;;
71550;SPS30;59367;48.414;9.872;2023-04-03T04:40:01;3.470499754;;3.470499754;;;;;;;
71550;SPS30;59367;48.414;9.872;2023-04-03T04:41:08;4.053525925;;4.053525925;;;;;;;
71550;SPS30;59367;48.414;9.872;2023-04-03T04:42:16;3.674182892;;3.674182892;;;;;;;
71550;SPS30;59367;48.414;9.872;2023-04-03T04:43:23;3.730778456;;3.730778456;;;;;;;
71550;SPS30;59367;48.414;9.872;2023-04-03T04:44:30;3.971248627;;3.971248627;;;;;;;
71550;SPS30;59367;48.414;9.872;2023-04-03T04:45:37;3.393495321;;3.393495321;;;;;;;
71550;SPS30;59367;48.414;9.872;2023-04-03T04:46:44;3.84218502;;3.84218502;;;;;;;
71550;SPS30;59367;48.414;9.872;2023-04-03T04:47:51;3.603061914;;3.603061914;;;;;;;
71550;SPS30;59367;48.414;9.872;2023-04-03T04:48:58;3.706018209;;3.706018209;;;;;;;
71550;SPS30;59367;48.414;9.872;2023-04-03T04:50:05;3.861216784;;3.861216784;;;;;;;
71550;SPS30;59367;48.414;9.872;2023-04-03T04:51:13;4.045636177;;4.045636177;;;;;;;
71550;SPS30;59367;48.414;9.872;2023-04-03T04:52:20;4.224682808;;4.224682808;;;;;;;
71550;SPS30;59367;48.414;9.872;2023-04-03T04:53:27;3.708215237;;3.708215237;;;;;;;
71550;SPS30;59367;48.414;9.872;2023-04-03T04:54:34;4.152200699;;4.152200699;;;;;;;
71550;SPS30;59367;48.414;9.872;2023-04-03T04:55:41;4.025353432;;4.025353432;;;;;;;
71550;SPS30;59367;48.414;9.872;2023-04-03T04:56:48;4.27291584;;4.27291584;;;;;;;
71550;SPS30;59367;48.414;9.872;2023-04-03T04:57:55;3.768538952;;3.768538952;;;;;;;
71550;SPS30;59367;48.414;9.872;2023-04-03T04:59:02;4.027781487;;4.027781487;;;;;;;
71550;SPS30;59367;48.414;9.872;2023-04-03T05:00:10;3.651776075;;3.651776075;;;;;;;
71550;SPS30;59367;48.414;9.872;2023-04-03T05:01:18;4.255181313;;4.255181313;;;;;;;
71550;SPS30;59367;48.414;9.872;2023-04-03T05:02:25;4.123764515;;4.123764515;;;;;;;
71550;SPS30;59367;48.414;9.872;2023-04-03T05:03:32;4.021678925;;4.021678925;;;;;;;
71550;SPS30;59367;48.414;9.872;2023-04-03T05:04:39;3.813071012;;3.813071012;;;;;;;
71550;SPS30;59367;48.414;9.872;2023-04-03T05:05:46;3.898240328;;3.898240328;;;;;;;
71550;SPS30;59367;48.414;9.872;2023-04-03T05:06:53;3.877328873;;3.877328873;;;;;;;
71550;SPS30;59367;48.414;9.872;2023-04-03T05:08:01;3.85036087;;3.85036087;;;;;;;
71550;SPS30;59367;48.414;9.872;2023-04-03T05:09:08;3.869017363;;3.869017363;;;;;;;
71550;SPS30;59367;48.414;9.872;2023-04-03T05:10:15;4.439237118;;4.439237118;;;;;;;
71550;SPS30;59367;48.414;9.872;2023-04-03T05:11:22;4.021361351;;4.021361351;;;;;;;
71550;SPS30;59367;48.414;9.872;2023-04-03T05:12:29;3.869925261;;3.869925261;;;;;;;
71550;SPS30;59367;48.414;9.872;2023-04-03T05:13:36;3.932161331;;3.932161331;;;;;;;
71550;SPS30;59367;48.414;9.872;2023-04-03T05:14:43;4.204823494;;4.204823494;;;;;;;
71550;SPS30;59367;48.414;9.872;2023-04-03T05:15:51;3.823425293;;3.823425293;;;;;;;
71550;SPS30;59367;48.414;9.872;2023-04-03T05:16:58;3.913822174;;3.913822174;;;;;;;
71550;SPS30;59367;48.414;9.872;2023-04-03T05:18:05;4.074052811;;4.074052811;;;;;;;
71550;SPS30;59367;48.414;9.872;2023-04-03T05:19:12;4.285924911;;4.285924911;;;;;;;
71550;SPS30;59367;48.414;9.872;2023-04-03T05:20:19;4.28662014;;4.28662014;;;;;;;
71550;SPS30;59367;48.414;9.872;2023-04-03T05:21:26;4.049150467;;4.049150467;;;;;;;
71550;SPS30;59367;48.414;9.872;2023-04-03T05:22:33;4.278067589;;4.278067589;;;;;;;
71550;SPS30;59367;48.414;9.872;2023-04-03T05:23:40;4.792435646;;4.792435646;;;;;;;
71550;SPS30;59367;48.414;9.872;2023-04-03T05:24:47;3.943314552;;3.943314552;;;;;;;
71550;SPS30;59367;48.414;9.872;2023-04-03T05:25:55;4.625684261;;4.625684261;;;;;;;
71550;SPS30;59367;48.414;9.872;2023-04-03T05:27:03;4.417760372;;4.417760372;;;;;;;